createdAt,value
2023-03-24T00:03:25.786Z,13.19
2023-03-24T00:08:31.803Z,13.18
2023-03-24T00:13:38.407Z,13.16
2023-03-24T00:18:43.065Z,13.13
2023-03-24T00:23:47.923Z,13.05
2023-03-24T00:28:53.670Z,12.92
2023-03-24T00:33:59.058Z,12.84
2023-03-24T00:39:03.885Z,12.79
2023-03-24T00:44:18.005Z,12.74
2023-03-24T00:49:42.063Z,12.57
2023-03-24T00:54:47.809Z,12.43
2023-03-24T00:59:56.218Z,12.35
2023-03-24T01:05:02.337Z,12.25
2023-03-24T01:10:08.580Z,12.10
2023-03-24T01:15:16.824Z,12.02
2023-03-24T01:20:23.066Z,11.96
2023-03-24T01:25:29.273Z,11.88
2023-03-24T01:30:35.070Z,11.81
2023-03-24T01:35:39.883Z,11.67
2023-03-24T01:40:46.598Z,11.62
2023-03-24T01:45:59.103Z,11.62
2023-03-24T01:51:06.541Z,11.68
2023-03-24T01:56:11.770Z,11.62
2023-03-24T02:01:20.497Z,11.56
2023-03-24T02:06:41.579Z,11.40
2023-03-24T02:11:46.304Z,11.41
2023-03-24T02:17:04.116Z,11.47
2023-03-24T02:22:37.245Z,11.61
2023-03-24T02:27:52.494Z,11.59
2023-03-24T02:33:20.008Z,11.58
2023-03-24T02:38:57.230Z,11.58
2023-03-24T02:44:07.841Z,11.66
2023-03-24T02:49:22.607Z,11.73
2023-03-24T02:54:33.319Z,11.78
2023-03-24T02:59:42.242Z,11.81
2023-03-24T03:05:13.940Z,11.86
2023-03-24T03:10:23.086Z,11.89
2023-03-24T03:15:33.729Z,11.92
2023-03-24T03:20:42.989Z,11.90
2023-03-24T03:25:51.621Z,11.89
2023-03-24T03:31:00.055Z,11.90
2023-03-24T03:36:08.206Z,11.90
2023-03-24T03:41:12.647Z,11.92
2023-03-24T03:46:19.342Z,11.92
2023-03-24T03:51:25.864Z,11.90
2023-03-24T03:56:34.913Z,11.89
2023-03-24T04:01:54.837Z,11.85
2023-03-24T04:07:15.047Z,11.87
2023-03-24T04:12:35.613Z,11.84
2023-03-24T04:18:16.873Z,11.84
2023-03-24T04:23:40.322Z,11.82
2023-03-24T04:28:52.412Z,11.79
2023-03-24T04:34:03.454Z,11.73
2023-03-24T04:39:13.187Z,11.70
2023-03-24T04:44:23.356Z,11.69
2023-03-24T04:49:53.247Z,11.72
2023-03-24T04:54:57.982Z,11.73
2023-03-24T05:00:08.404Z,11.73
2023-03-24T05:05:14.782Z,11.76
2023-03-24T05:10:25.556Z,11.81
2023-03-24T05:15:32.919Z,11.87
2023-03-24T05:21:00.076Z,11.87
2023-03-24T05:26:05.252Z,11.91
2023-03-24T05:31:17.958Z,11.98
2023-03-24T05:36:28.593Z,12.04
2023-03-24T05:41:35.703Z,12.11
2023-03-24T05:46:40.151Z,12.22
2023-03-24T05:51:46.505Z,12.28
2023-03-24T05:56:51.821Z,12.36
2023-03-24T06:02:11.485Z,12.39
2023-03-24T06:07:30.678Z,12.51
2023-03-24T06:12:35.852Z,12.59
2023-03-24T06:17:42.809Z,12.72
2023-03-24T06:23:00.161Z,12.80
2023-03-24T06:28:12.340Z,12.86
2023-03-24T06:33:18.208Z,12.99
2023-03-24T06:38:24.451Z,13.03
2023-03-24T06:43:29.017Z,13.13
2023-03-24T06:48:33.721Z,13.18
2023-03-24T06:53:45.702Z,13.25
2023-03-24T06:58:51.580Z,13.42
2023-03-24T07:04:03.164Z,13.50
2023-03-24T07:09:18.894Z,13.69
2023-03-24T07:14:26.127Z,13.86
2023-03-24T07:19:32.356Z,13.97
2023-03-24T07:24:58.356Z,13.98
2023-03-24T07:30:20.556Z,14.11
2023-03-24T07:35:28.997Z,14.27
2023-03-24T07:40:35.571Z,14.45
2023-03-24T07:45:39.529Z,14.66
2023-03-24T07:50:43.911Z,15.00
2023-03-24T07:56:09.843Z,15.05
2023-03-24T08:01:21.242Z,15.19
2023-03-24T08:06:26.934Z,15.17
2023-03-24T08:11:35.837Z,15.12
2023-03-24T08:16:39.903Z,15.33
2023-03-24T08:21:43.823Z,15.45
2023-03-24T08:26:49.149Z,15.55
2023-03-24T08:31:53.316Z,15.67
2023-03-24T08:36:57.470Z,15.78
2023-03-24T08:42:02.962Z,15.85
2023-03-24T08:47:06.880Z,16.05
2023-03-24T08:52:11.199Z,16.09
2023-03-24T08:57:16.697Z,16.09
2023-03-24T09:02:20.818Z,16.35
2023-03-24T09:07:25.119Z,16.59
2023-03-24T09:12:30.602Z,16.84
2023-03-24T09:17:35.287Z,17.09
2023-03-24T09:22:40.282Z,17.18
2023-03-24T09:27:47.650Z,17.13
2023-03-24T09:32:51.583Z,17.23
2023-03-24T09:37:56.160Z,17.31
2023-03-24T09:43:05.444Z,17.45
2023-03-24T09:48:13.784Z,17.43
2023-03-24T09:53:29.066Z,17.42
2023-03-24T09:58:35.891Z,17.53
2023-03-24T10:03:40.399Z,17.32
2023-03-24T10:08:45.905Z,17.21
2023-03-24T10:14:03.133Z,17.28
2023-03-24T10:19:18.053Z,17.49
2023-03-24T10:24:28.715Z,17.74
2023-03-24T10:29:35.684Z,17.78
2023-03-24T10:34:40.585Z,17.69
2023-03-24T10:39:45.396Z,17.61
2023-03-24T10:44:52.232Z,17.34
2023-03-24T10:49:59.428Z,17.45
2023-03-24T10:55:06.654Z,17.72
2023-03-24T11:00:23.680Z,17.97
2023-03-24T11:05:30.965Z,18.10
2023-03-24T11:10:34.958Z,18.15
2023-03-24T11:15:53.339Z,18.31
2023-03-24T11:21:01.005Z,18.36
2023-03-24T11:26:10.664Z,18.65
2023-03-24T11:31:24.803Z,18.66
2023-03-24T11:36:50.302Z,18.83
2023-03-24T11:42:03.163Z,19.17
2023-03-24T11:47:12.017Z,19.67
2023-03-24T11:52:23.270Z,19.31
2023-03-24T11:57:40.644Z,19.54
2023-03-24T12:02:56.756Z,19.68
2023-03-24T12:08:37.144Z,19.79
2023-03-24T12:13:43.215Z,20.00
2023-03-24T12:19:19.452Z,19.98
2023-03-24T12:24:34.618Z,19.96
2023-03-24T12:29:52.151Z,20.28
2023-03-24T12:35:07.071Z,20.64
2023-03-24T12:40:39.818Z,20.40
2023-03-24T12:45:45.424Z,20.32
2023-03-24T12:50:59.065Z,20.30
2023-03-24T12:56:09.493Z,19.99
2023-03-24T13:01:20.521Z,19.87
2023-03-24T13:06:29.312Z,19.93
2023-03-24T13:11:41.321Z,19.98
2023-03-24T13:16:46.822Z,19.98
2023-03-24T13:21:52.569Z,19.83
2023-03-24T13:27:05.575Z,19.29
2023-03-24T13:32:15.463Z,19.12
2023-03-24T13:37:22.752Z,19.07
2023-03-24T13:42:33.005Z,18.88
2023-03-24T13:47:50.761Z,18.91
2023-03-24T13:52:56.081Z,18.93
2023-03-24T13:58:10.513Z,18.83
2023-03-24T14:03:18.949Z,18.75
2023-03-24T14:08:36.113Z,18.51
2023-03-24T14:13:48.679Z,18.34
2023-03-24T14:18:52.803Z,18.33
2023-03-24T14:23:59.790Z,17.97
2023-03-24T14:29:05.210Z,17.86
2023-03-24T14:34:14.886Z,17.75
2023-03-24T14:39:27.645Z,17.74
2023-03-24T14:44:55.825Z,17.67
2023-03-24T14:50:01.299Z,17.58
2023-03-24T14:55:08.277Z,17.48
2023-03-24T15:00:18.965Z,17.30
2023-03-24T15:05:30.051Z,17.15
2023-03-24T15:10:38.084Z,16.93
2023-03-24T15:15:49.099Z,16.84
2023-03-24T15:20:54.030Z,16.74
2023-03-24T15:25:58.481Z,16.72
2023-03-24T15:31:04.170Z,16.44
2023-03-24T15:36:16.766Z,16.32
2023-03-24T15:41:23.459Z,16.21
2023-03-24T15:46:30.525Z,16.11
2023-03-24T15:51:49.192Z,16.06
2023-03-24T15:57:17.422Z,15.88
2023-03-24T16:02:29.128Z,15.71
2023-03-24T16:07:34.341Z,15.58
2023-03-24T16:12:39.054Z,15.46
2023-03-24T16:17:44.729Z,15.25
2023-03-24T16:22:48.987Z,15.10
2023-03-24T16:27:53.090Z,15.04
2023-03-24T16:32:58.855Z,14.92
2023-03-24T16:38:02.919Z,14.84
2023-03-24T16:43:07.064Z,14.78
2023-03-24T16:48:13.026Z,14.68
2023-03-24T16:53:17.233Z,14.59
2023-03-24T16:58:21.585Z,14.50
2023-03-24T17:03:30.021Z,14.40
2023-03-24T17:08:34.624Z,14.28
2023-03-24T17:13:38.525Z,14.27
2023-03-24T17:18:44.256Z,14.24
2023-03-24T17:23:50.233Z,14.16
2023-03-24T17:28:54.375Z,14.08
2023-03-24T17:34:03.786Z,14.03
2023-03-24T17:39:16.764Z,13.97
2023-03-24T17:44:21.002Z,13.97
2023-03-24T17:49:26.487Z,13.93
2023-03-24T17:54:30.491Z,13.92
2023-03-24T17:59:37.307Z,13.92
2023-03-24T18:04:42.570Z,13.89
2023-03-24T18:09:46.676Z,13.96
2023-03-24T18:14:50.584Z,13.96
2023-03-24T18:19:56.498Z,13.92
2023-03-24T18:25:03.835Z,13.88
2023-03-24T18:30:09.697Z,13.85
2023-03-24T18:35:17.201Z,13.82
2023-03-24T18:40:21.591Z,13.69
2023-03-24T18:45:25.802Z,13.64
2023-03-24T18:50:31.338Z,13.58
2023-03-24T18:55:35.244Z,13.50
2023-03-24T19:00:39.788Z,13.53
2023-03-24T19:05:46.934Z,13.43
2023-03-24T19:10:51.067Z,13.45
2023-03-24T19:15:55.498Z,13.45
2023-03-24T19:21:02.044Z,13.43
2023-03-24T19:26:06.629Z,13.35
2023-03-24T19:31:14.733Z,13.32
2023-03-24T19:36:20.601Z,13.30
2023-03-24T19:41:26.382Z,13.26
2023-03-24T19:46:30.422Z,13.22
2023-03-24T19:51:35.879Z,13.17
2023-03-24T19:56:40.031Z,13.08
2023-03-24T20:01:44.580Z,13.00
2023-03-24T20:06:49.855Z,12.98
2023-03-24T20:11:54.695Z,12.90
2023-03-24T20:16:58.861Z,12.81
2023-03-24T20:22:04.438Z,12.71
2023-03-24T20:27:08.799Z,12.67
2023-03-24T20:32:13.732Z,12.59
2023-03-24T20:37:19.128Z,12.55
2023-03-24T20:42:24.654Z,12.58
2023-03-24T20:47:29.111Z,12.60
2023-03-24T20:52:35.971Z,12.53
2023-03-24T20:57:40.436Z,12.47
2023-03-24T21:02:45.565Z,12.40
2023-03-24T21:07:51.701Z,12.52
2023-03-24T21:12:55.660Z,12.58
2023-03-24T21:18:00.014Z,12.61
2023-03-24T21:23:09.520Z,12.66
2023-03-24T21:28:13.763Z,12.71
2023-03-24T21:33:17.661Z,12.76
2023-03-24T21:38:23.356Z,12.79
2023-03-24T21:43:29.291Z,12.77
2023-03-24T21:48:35.083Z,12.75
2023-03-24T21:53:40.755Z,12.68
2023-03-24T21:58:44.969Z,12.65
2023-03-24T22:03:50.786Z,12.65
2023-03-24T22:08:58.319Z,12.63
2023-03-24T22:14:02.692Z,12.60
2023-03-24T22:19:08.982Z,12.57
2023-03-24T22:24:14.646Z,12.40
2023-03-24T22:29:19.083Z,12.39
2023-03-24T22:34:23.359Z,12.32
2023-03-24T22:39:28.874Z,12.26
2023-03-24T22:44:33.853Z,12.23
2023-03-24T22:49:37.894Z,12.16
2023-03-24T22:54:43.541Z,12.14
2023-03-24T22:59:48.117Z,12.11
2023-03-24T23:04:55.131Z,12.11
2023-03-24T23:10:00.491Z,12.09
2023-03-24T23:15:05.628Z,12.05
2023-03-24T23:20:12.054Z,12.04
2023-03-24T23:25:19.115Z,11.89
2023-03-24T23:30:23.628Z,11.82
2023-03-24T23:35:27.899Z,11.81
2023-03-24T23:40:33.610Z,11.80
2023-03-24T23:45:37.963Z,11.80
2023-03-24T23:50:46.441Z,11.73
2023-03-24T23:55:57.005Z,11.66
